sensor_id;sensor_type;location;lat;lon;timestamp;pressure;altitude;pressure_sealevel;temperature;humidity
20622;BME280;10470;42.670;23.354;2023-07-29T00:00:35;94726.91;;;20.57;100.00
20622;BME280;10470;42.670;23.354;2023-07-29T00:03:01;94728.47;;;20.41;100.00
20622;BME280;10470;42.670;23.354;2023-07-29T00:05:27;94724.16;;;20.57;100.00
20622;BME280;10470;42.670;23.354;2023-07-29T00:07:53;94717.41;;;20.47;100.00
20622;BME280;10470;42.670;23.354;2023-07-29T00:10:19;94727.25;;;20.42;100.00
20622;BME280;10470;42.670;23.354;2023-07-29T00:12:44;94729.72;;;20.46;100.00
20622;BME280;10470;42.670;23.354;2023-07-29T00:15:12;94728.22;;;20.45;100.00
20622;BME280;10470;42.670;23.354;2023-07-29T00:17:37;94733.81;;;20.39;100.00
20622;BME280;10470;42.670;23.354;2023-07-29T00:20:04;94737.19;;;20.21;100.00
20622;BME280;10470;42.670;23.354;2023-07-29T00:22:31;94724.41;;;20.48;100.00
20622;BME280;10470;42.670;23.354;2023-07-29T00:24:57;94731.50;;;20.43;100.00
20622;BME280;10470;42.670;23.354;2023-07-29T00:27:25;94727.91;;;20.18;100.00
20622;BME280;10470;42.670;23.354;2023-07-29T00:29:52;94724.41;;;20.12;100.00
20622;BME280;10470;42.670;23.354;2023-07-29T00:32:18;94726.75;;;19.97;100.00
20622;BME280;10470;42.670;23.354;2023-07-29T00:34:44;94733.41;;;20.24;100.00
20622;BME280;10470;42.670;23.354;2023-07-29T00:37:10;94724.16;;;20.16;100.00
20622;BME280;10470;42.670;23.354;2023-07-29T00:39:36;94715.84;;;20.10;100.00
20622;BME280;10470;42.670;23.354;2023-07-29T00:42:03;94720.06;;;20.22;100.00
20622;BME280;10470;42.670;23.354;2023-07-29T00:44:29;94725.59;;;20.22;100.00
20622;BME280;10470;42.670;23.354;2023-07-29T00:46:57;94712.06;;;20.19;100.00
20622;BME280;10470;42.670;23.354;2023-07-29T00:49:24;94721.31;;;20.27;100.00
20622;BME280;10470;42.670;23.354;2023-07-29T00:51:50;94711.72;;;20.28;100.00
20622;BME280;10470;42.670;23.354;2023-07-29T00:54:16;94719.41;;;20.05;100.00
20622;BME280;10470;42.670;23.354;2023-07-29T00:56:42;94708.69;;;20.32;100.00
20622;BME280;10470;42.670;23.354;2023-07-29T00:59:08;94709.63;;;20.04;100.00
20622;BME280;10470;42.670;23.354;2023-07-29T01:01:34;94712.88;;;20.08;100.00
20622;BME280;10470;42.670;23.354;2023-07-29T01:04:00;94706.34;;;20.05;100.00
20622;BME280;10470;42.670;23.354;2023-07-29T01:09:22;94687.59;;;19.81;100.00
20622;BME280;10470;42.670;23.354;2023-07-29T01:11:56;94703.97;;;19.74;100.00
20622;BME280;10470;42.670;23.354;2023-07-29T01:14:42;94704.53;;;19.67;100.00
20622;BME280;10470;42.670;23.354;2023-07-29T01:17:19;94704.47;;;19.78;100.00
20622;BME280;10470;42.670;23.354;2023-07-29T01:22:21;94708.91;;;19.92;100.00
20622;BME280;10470;42.670;23.354;2023-07-29T01:24:46;94712.25;;;19.85;100.00
20622;BME280;10470;42.670;23.354;2023-07-29T01:27:12;94702.03;;;20.10;100.00
20622;BME280;10470;42.670;23.354;2023-07-29T01:29:38;94712.94;;;19.91;100.00
20622;BME280;10470;42.670;23.354;2023-07-29T01:32:10;94713.16;;;19.99;100.00
20622;BME280;10470;42.670;23.354;2023-07-29T01:35:03;94710.25;;;19.80;100.00
20622;BME280;10470;42.670;23.354;2023-07-29T01:37:33;94704.75;;;19.69;100.00
20622;BME280;10470;42.670;23.354;2023-07-29T01:40:00;94706.28;;;19.70;100.00
20622;BME280;10470;42.670;23.354;2023-07-29T01:42:27;94704.00;;;19.62;100.00
20622;BME280;10470;42.670;23.354;2023-07-29T01:44:53;94701.31;;;19.51;100.00
20622;BME280;10470;42.670;23.354;2023-07-29T01:47:20;94706.84;;;19.46;100.00
20622;BME280;10470;42.670;23.354;2023-07-29T01:49:48;94709.03;;;19.70;100.00
20622;BME280;10470;42.670;23.354;2023-07-29T01:52:14;94705.19;;;19.84;100.00
20622;BME280;10470;42.670;23.354;2023-07-29T01:54:40;94708.28;;;19.75;100.00
20622;BME280;10470;42.670;23.354;2023-07-29T01:57:06;94695.97;;;19.70;100.00
20622;BME280;10470;42.670;23.354;2023-07-29T01:59:32;94700.03;;;19.52;100.00
20622;BME280;10470;42.670;23.354;2023-07-29T02:01:58;94703.34;;;19.39;100.00
20622;BME280;10470;42.670;23.354;2023-07-29T02:04:24;94710.16;;;19.27;100.00
20622;BME280;10470;42.670;23.354;2023-07-29T02:06:50;94702.91;;;19.18;100.00
20622;BME280;10470;42.670;23.354;2023-07-29T02:09:16;94709.94;;;19.14;100.00
20622;BME280;10470;42.670;23.354;2023-07-29T02:11:43;94704.88;;;19.40;100.00
20622;BME280;10470;42.670;23.354;2023-07-29T02:14:08;94707.66;;;19.29;100.00
20622;BME280;10470;42.670;23.354;2023-07-29T02:16:35;94703.38;;;19.34;100.00
20622;BME280;10470;42.670;23.354;2023-07-29T02:19:02;94702.41;;;19.20;100.00
20622;BME280;10470;42.670;23.354;2023-07-29T02:21:29;94713.22;;;19.18;100.00
20622;BME280;10470;42.670;23.354;2023-07-29T02:23:55;94715.75;;;19.10;100.00
20622;BME280;10470;42.670;23.354;2023-07-29T02:26:22;94718.47;;;19.16;100.00
20622;BME280;10470;42.670;23.354;2023-07-29T02:28:48;94720.47;;;19.27;100.00
20622;BME280;10470;42.670;23.354;2023-07-29T02:31:17;94716.75;;;19.13;100.00
20622;BME280;10470;42.670;23.354;2023-07-29T02:33:43;94710.97;;;19.05;100.00
20622;BME280;10470;42.670;23.354;2023-07-29T02:36:11;94705.72;;;19.07;100.00
20622;BME280;10470;42.670;23.354;2023-07-29T02:38:38;94716.47;;;19.11;100.00
20622;BME280;10470;42.670;23.354;2023-07-29T02:41:05;94709.19;;;19.19;100.00
20622;BME280;10470;42.670;23.354;2023-07-29T02:43:31;94711.72;;;19.11;100.00
20622;BME280;10470;42.670;23.354;2023-07-29T02:45:57;94711.19;;;19.18;100.00
20622;BME280;10470;42.670;23.354;2023-07-29T02:48:23;94699.09;;;19.27;100.00
20622;BME280;10470;42.670;23.354;2023-07-29T02:50:49;94708.16;;;19.28;100.00
20622;BME280;10470;42.670;23.354;2023-07-29T02:53:15;94705.19;;;19.03;100.00
20622;BME280;10470;42.670;23.354;2023-07-29T02:55:42;94711.69;;;19.17;100.00
20622;BME280;10470;42.670;23.354;2023-07-29T02:58:08;94721.97;;;19.28;100.00
20622;BME280;10470;42.670;23.354;2023-07-29T03:00:34;94707.91;;;19.26;100.00
20622;BME280;10470;42.670;23.354;2023-07-29T03:03:01;94713.22;;;19.18;100.00
20622;BME280;10470;42.670;23.354;2023-07-29T03:05:27;94716.97;;;19.09;100.00
20622;BME280;10470;42.670;23.354;2023-07-29T03:07:54;94724.50;;;19.14;100.00
20622;BME280;10470;42.670;23.354;2023-07-29T03:10:20;94731.78;;;19.12;100.00
20622;BME280;10470;42.670;23.354;2023-07-29T03:12:46;94726.81;;;18.99;100.00
20622;BME280;10470;42.670;23.354;2023-07-29T03:15:13;94728.78;;;19.21;100.00
20622;BME280;10470;42.670;23.354;2023-07-29T03:17:39;94736.84;;;18.96;100.00
20622;BME280;10470;42.670;23.354;2023-07-29T03:20:08;94733.09;;;18.88;100.00
20622;BME280;10470;42.670;23.354;2023-07-29T03:22:34;94735.84;;;18.88;100.00
20622;BME280;10470;42.670;23.354;2023-07-29T03:25:00;94739.34;;;19.00;100.00
20622;BME280;10470;42.670;23.354;2023-07-29T03:27:26;94735.31;;;19.12;100.00
20622;BME280;10470;42.670;23.354;2023-07-29T03:29:52;94738.09;;;19.01;100.00
20622;BME280;10470;42.670;23.354;2023-07-29T03:32:18;94732.56;;;18.67;100.00
20622;BME280;10470;42.670;23.354;2023-07-29T03:34:45;94742.84;;;18.39;100.00
20622;BME280;10470;42.670;23.354;2023-07-29T03:37:11;94736.34;;;18.47;100.00
20622;BME280;10470;42.670;23.354;2023-07-29T03:39:37;94735.09;;;18.65;100.00
20622;BME280;10470;42.670;23.354;2023-07-29T03:42:03;94738.63;;;18.77;100.00
20622;BME280;10470;42.670;23.354;2023-07-29T03:44:29;94736.59;;;18.83;100.00
20622;BME280;10470;42.670;23.354;2023-07-29T03:46:56;94734.59;;;18.95;100.00
20622;BME280;10470;42.670;23.354;2023-07-29T03:49:22;94738.84;;;19.13;100.00
20622;BME280;10470;42.670;23.354;2023-07-29T03:51:49;94739.63;;;18.80;100.00
20622;BME280;10470;42.670;23.354;2023-07-29T03:54:15;94742.59;;;18.53;100.00
20622;BME280;10470;42.670;23.354;2023-07-29T03:56:41;94735.06;;;18.54;100.00
20622;BME280;10470;42.670;23.354;2023-07-29T03:59:07;94732.81;;;18.69;100.00
20622;BME280;10470;42.670;23.354;2023-07-29T04:01:33;94736.59;;;19.00;100.00
20622;BME280;10470;42.670;23.354;2023-07-29T04:03:59;94739.38;;;18.89;100.00
20622;BME280;10470;42.670;23.354;2023-07-29T04:06:25;94736.63;;;18.89;100.00
20622;BME280;10470;42.670;23.354;2023-07-29T04:08:51;94745.59;;;19.23;100.00
20622;BME280;10470;42.670;23.354;2023-07-29T04:11:18;94740.25;;;19.48;100.00
20622;BME280;10470;42.670;23.354;2023-07-29T04:13:43;94748.03;;;19.55;100.00
20622;BME280;10470;42.670;23.354;2023-07-29T04:16:10;94754.22;;;19.83;100.00
20622;BME280;10470;42.670;23.354;2023-07-29T04:18:36;94748.19;;;19.85;100.00
20622;BME280;10470;42.670;23.354;2023-07-29T04:21:02;94755.16;;;19.97;100.00
20622;BME280;10470;42.670;23.354;2023-07-29T04:23:28;94755.88;;;20.50;100.00
20622;BME280;10470;42.670;23.354;2023-07-29T04:25:54;94753.09;;;20.50;100.00
20622;BME280;10470;42.670;23.354;2023-07-29T04:28:20;94745.53;;;20.10;100.00
20622;BME280;10470;42.670;23.354;2023-07-29T04:30:47;94745.94;;;19.83;100.00
20622;BME280;10470;42.670;23.354;2023-07-29T04:33:13;94751.00;;;19.74;100.00
20622;BME280;10470;42.670;23.354;2023-07-29T04:35:39;94744.53;;;19.49;100.00
20622;BME280;10470;42.670;23.354;2023-07-29T04:38:06;94745.22;;;19.77;100.00
20622;BME280;10470;42.670;23.354;2023-07-29T04:40:35;94757.66;;;20.01;100.00
20622;BME280;10470;42.670;23.354;2023-07-29T04:43:01;94756.78;;;19.64;100.00
20622;BME280;10470;42.670;23.354;2023-07-29T04:45:28;94760.34;;;19.54;100.00
20622;BME280;10470;42.670;23.354;2023-07-29T04:47:56;94757.81;;;19.67;100.00
20622;BME280;10470;42.670;23.354;2023-07-29T04:50:22;94749.63;;;20.03;100.00
20622;BME280;10470;42.670;23.354;2023-07-29T04:52:48;94754.38;;;20.08;100.00
20622;BME280;10470;42.670;23.354;2023-07-29T04:55:14;94771.19;;;20.16;100.00
20622;BME280;10470;42.670;23.354;2023-07-29T04:57:41;94766.22;;;20.03;100.00
20622;BME280;10470;42.670;23.354;2023-07-29T05:00:07;94770.38;;;20.26;100.00
20622;BME280;10470;42.670;23.354;2023-07-29T05:02:34;94769.38;;;20.24;100.00
20622;BME280;10470;42.670;23.354;2023-07-29T05:05:00;94774.75;;;19.99;100.00
20622;BME280;10470;42.670;23.354;2023-07-29T05:07:26;94778.06;;;20.45;100.00
20622;BME280;10470;42.670;23.354;2023-07-29T05:09:52;94778.59;;;20.38;100.00
20622;BME280;10470;42.670;23.354;2023-07-29T05:12:18;94783.53;;;20.50;100.00
20622;BME280;10470;42.670;23.354;2023-07-29T05:14:44;94783.31;;;20.48;100.00
20622;BME280;10470;42.670;23.354;2023-07-29T05:17:10;94779.88;;;20.37;100.00
20622;BME280;10470;42.670;23.354;2023-07-29T05:19:37;94779.59;;;20.40;100.00
20622;BME280;10470;42.670;23.354;2023-07-29T05:22:03;94787.19;;;20.70;100.00
20622;BME280;10470;42.670;23.354;2023-07-29T05:24:29;94783.44;;;20.73;100.00
20622;BME280;10470;42.670;23.354;2023-07-29T05:26:55;94787.03;;;20.92;100.00
20622;BME280;10470;42.670;23.354;2023-07-29T05:29:21;94785.78;;;20.93;100.00
20622;BME280;10470;42.670;23.354;2023-07-29T05:31:47;94790.69;;;21.12;100.00
20622;BME280;10470;42.670;23.354;2023-07-29T05:34:13;94797.53;;;21.05;100.00
20622;BME280;10470;42.670;23.354;2023-07-29T05:36:40;94795.69;;;21.13;100.00
20622;BME280;10470;42.670;23.354;2023-07-29T05:39:06;94796.78;;;21.29;100.00
20622;BME280;10470;42.670;23.354;2023-07-29T05:41:33;94794.81;;;21.24;100.00
20622;BME280;10470;42.670;23.354;2023-07-29T05:43:59;94802.63;;;21.26;100.00
20622;BME280;10470;42.670;23.354;2023-07-29T05:46:25;94809.03;;;21.15;100.00
20622;BME280;10470;42.670;23.354;2023-07-29T05:48:52;94808.84;;;21.07;100.00
20622;BME280;10470;42.670;23.354;2023-07-29T05:51:18;94796.97;;;21.37;100.00
20622;BME280;10470;42.670;23.354;2023-07-29T05:53:44;94802.88;;;20.98;100.00
20622;BME280;10470;42.670;23.354;2023-07-29T05:56:10;94793.72;;;21.38;100.00
20622;BME280;10470;42.670;23.354;2023-07-29T05:58:37;94793.63;;;21.93;100.00
20622;BME280;10470;42.670;23.354;2023-07-29T06:01:03;94797.91;;;21.94;100.00
20622;BME280;10470;42.670;23.354;2023-07-29T06:03:29;94799.69;;;21.92;100.00
20622;BME280;10470;42.670;23.354;2023-07-29T06:05:55;94798.88;;;21.97;100.00
20622;BME280;10470;42.670;23.354;2023-07-29T06:08:21;94799.69;;;21.92;100.00
20622;BME280;10470;42.670;23.354;2023-07-29T06:10:47;94797.56;;;22.03;100.00
20622;BME280;10470;42.670;23.354;2023-07-29T06:13:13;94795.75;;;22.06;100.00
20622;BME280;10470;42.670;23.354;2023-07-29T06:15:40;94800.84;;;22.27;100.00
20622;BME280;10470;42.670;23.354;2023-07-29T06:18:06;94796.84;;;22.60;100.00
20622;BME280;10470;42.670;23.354;2023-07-29T06:20:32;94797.00;;;22.67;100.00
20622;BME280;10470;42.670;23.354;2023-07-29T06:22:58;94792.09;;;22.36;100.00
20622;BME280;10470;42.670;23.354;2023-07-29T06:25:25;94792.72;;;22.29;100.00
20622;BME280;10470;42.670;23.354;2023-07-29T06:27:51;94785.59;;;22.52;100.00
20622;BME280;10470;42.670;23.354;2023-07-29T06:30:17;94793.94;;;22.52;100.00
20622;BME280;10470;42.670;23.354;2023-07-29T06:32:43;94787.78;;;22.92;100.00
20622;BME280;10470;42.670;23.354;2023-07-29T06:35:09;94779.31;;;22.84;100.00
20622;BME280;10470;42.670;23.354;2023-07-29T06:37:35;94780.69;;;23.09;100.00
20622;BME280;10470;42.670;23.354;2023-07-29T06:40:02;94779.31;;;23.16;100.00
20622;BME280;10470;42.670;23.354;2023-07-29T06:42:28;94781.88;;;23.14;100.00
20622;BME280;10470;42.670;23.354;2023-07-29T06:44:55;94775.91;;;23.37;100.00
20622;BME280;10470;42.670;23.354;2023-07-29T06:47:21;94781.13;;;23.27;100.00
20622;BME280;10470;42.670;23.354;2023-07-29T06:49:48;94766.59;;;23.34;100.00
20622;BME280;10470;42.670;23.354;2023-07-29T06:52:14;94769.09;;;23.51;100.00
20622;BME280;10470;42.670;23.354;2023-07-29T06:54:40;94774.66;;;23.38;100.00
20622;BME280;10470;42.670;23.354;2023-07-29T06:57:06;94780.41;;;23.40;100.00
20622;BME280;10470;42.670;23.354;2023-07-29T06:59:32;94775.41;;;23.51;100.00
20622;BME280;10470;42.670;23.354;2023-07-29T07:01:59;94773.94;;;23.77;100.00
20622;BME280;10470;42.670;23.354;2023-07-29T07:04:25;94771.56;;;23.81;100.00
20622;BME280;10470;42.670;23.354;2023-07-29T07:06:51;94777.53;;;24.12;100.00
20622;BME280;10470;42.670;23.354;2023-07-29T07:09:19;94777.88;;;24.08;100.00
20622;BME280;10470;42.670;23.354;2023-07-29T07:11:45;94773.25;;;24.24;100.00
20622;BME280;10470;42.670;23.354;2023-07-29T07:14:11;94776.72;;;24.38;100.00
20622;BME280;10470;42.670;23.354;2023-07-29T07:16:37;94777.50;;;24.25;100.00
20622;BME280;10470;42.670;23.354;2023-07-29T07:19:05;94777.19;;;24.29;100.00
20622;BME280;10470;42.670;23.354;2023-07-29T07:21:32;94770.75;;;24.34;100.00
20622;BME280;10470;42.670;23.354;2023-07-29T07:24:00;94775.69;;;24.28;100.00
20622;BME280;10470;42.670;23.354;2023-07-29T07:26:27;94776.81;;;24.59;100.00
20622;BME280;10470;42.670;23.354;2023-07-29T07:28:53;94769.78;;;24.45;100.00
20622;BME280;10470;42.670;23.354;2023-07-29T07:31:20;94768.50;;;24.32;100.00
20622;BME280;10470;42.670;23.354;2023-07-29T07:33:46;94762.91;;;24.46;100.00
20622;BME280;10470;42.670;23.354;2023-07-29T07:36:12;94761.13;;;24.69;100.00
20622;BME280;10470;42.670;23.354;2023-07-29T07:38:38;94767.59;;;24.85;100.00
20622;BME280;10470;42.670;23.354;2023-07-29T07:41:05;94774.19;;;24.95;100.00
20622;BME280;10470;42.670;23.354;2023-07-29T07:43:31;94763.09;;;24.82;100.00
20622;BME280;10470;42.670;23.354;2023-07-29T07:45:58;94770.38;;;24.85;100.00
20622;BME280;10470;42.670;23.354;2023-07-29T07:48:26;94765.22;;;24.68;100.00
20622;BME280;10470;42.670;23.354;2023-07-29T07:50:53;94768.28;;;24.78;100.00
20622;BME280;10470;42.670;23.354;2023-07-29T07:53:19;94773.22;;;25.14;100.00
20622;BME280;10470;42.670;23.354;2023-07-29T07:55:46;94762.38;;;25.02;100.00
20622;BME280;10470;42.670;23.354;2023-07-29T07:58:12;94767.59;;;24.85;100.00
20622;BME280;10470;42.670;23.354;2023-07-29T08:00:39;94770.66;;;25.37;100.00
20622;BME280;10470;42.670;23.354;2023-07-29T08:03:06;94782.72;;;25.60;100.00
20622;BME280;10470;42.670;23.354;2023-07-29T08:05:32;94772.13;;;25.59;100.00
20622;BME280;10470;42.670;23.354;2023-07-29T08:07:58;94778.97;;;25.58;100.00
20622;BME280;10470;42.670;23.354;2023-07-29T08:10:24;94778.53;;;25.46;100.00
20622;BME280;10470;42.670;23.354;2023-07-29T08:12:50;94768.13;;;25.46;100.00
20622;BME280;10470;42.670;23.354;2023-07-29T08:15:16;94774.41;;;25.39;100.00
20622;BME280;10470;42.670;23.354;2023-07-29T08:17:43;94775.78;;;25.25;100.00
20622;BME280;10470;42.670;23.354;2023-07-29T08:20:09;94779.09;;;25.23;100.00
20622;BME280;10470;42.670;23.354;2023-07-29T08:22:36;94781.78;;;25.58;100.00
20622;BME280;10470;42.670;23.354;2023-07-29T08:25:02;94774.41;;;25.39;100.00
20622;BME280;10470;42.670;23.354;2023-07-29T08:27:28;94774.00;;;25.14;100.00
20622;BME280;10470;42.670;23.354;2023-07-29T08:29:54;94769.81;;;25.78;100.00
20622;BME280;10470;42.670;23.354;2023-07-29T08:32:21;94784.25;;;25.90;97.07
20622;BME280;10470;42.670;23.354;2023-07-29T08:34:46;94769.97;;;25.72;95.25
20622;BME280;10470;42.670;23.354;2023-07-29T08:37:13;94768.91;;;26.12;88.97
20622;BME280;10470;42.670;23.354;2023-07-29T08:39:39;94772.66;;;26.22;87.11
20622;BME280;10470;42.670;23.354;2023-07-29T08:42:07;94767.28;;;26.24;87.51
20622;BME280;10470;42.670;23.354;2023-07-29T08:44:43;94767.56;;;26.49;87.93
20622;BME280;10470;42.670;23.354;2023-07-29T08:47:09;94757.53;;;26.62;84.77
20622;BME280;10470;42.670;23.354;2023-07-29T08:49:37;94758.53;;;26.87;82.45
20622;BME280;10470;42.670;23.354;2023-07-29T08:52:04;94747.72;;;26.91;81.52
20622;BME280;10470;42.670;23.354;2023-07-29T08:54:30;94754.47;;;27.04;80.40
20622;BME280;10470;42.670;23.354;2023-07-29T08:56:57;94755.53;;;26.77;75.90
20622;BME280;10470;42.670;23.354;2023-07-29T08:59:24;94749.03;;;26.90;76.71
20622;BME280;10470;42.670;23.354;2023-07-29T09:01:52;94747.78;;;27.22;74.47
20622;BME280;10470;42.670;23.354;2023-07-29T09:04:21;94739.38;;;27.30;70.99
20622;BME280;10470;42.670;23.354;2023-07-29T09:06:47;94749.06;;;27.29;70.25
20622;BME280;10470;42.670;23.354;2023-07-29T09:09:16;94744.19;;;27.37;69.42
20622;BME280;10470;42.670;23.354;2023-07-29T09:11:43;94748.66;;;26.86;67.80
20622;BME280;10470;42.670;23.354;2023-07-29T09:14:10;94740.25;;;26.86;68.14
20622;BME280;10470;42.670;23.354;2023-07-29T09:16:36;94741.56;;;27.08;67.08
20622;BME280;10470;42.670;23.354;2023-07-29T09:19:03;94747.97;;;27.24;66.31
20622;BME280;10470;42.670;23.354;2023-07-29T09:21:30;94737.66;;;27.57;65.28
20622;BME280;10470;42.670;23.354;2023-07-29T09:23:57;94730.88;;;27.76;63.44
20622;BME280;10470;42.670;23.354;2023-07-29T09:26:29;94727.38;;;27.52;63.01
20622;BME280;10470;42.670;23.354;2023-07-29T09:28:58;94727.56;;;27.62;62.99
20622;BME280;10470;42.670;23.354;2023-07-29T09:31:27;94733.31;;;27.87;62.22
20622;BME280;10470;42.670;23.354;2023-07-29T09:34:01;94732.00;;;27.80;60.66
20622;BME280;10470;42.670;23.354;2023-07-29T09:36:31;94730.28;;;28.00;61.70
20622;BME280;10470;42.670;23.354;2023-07-29T09:38:58;94726.75;;;28.00;61.33
20622;BME280;10470;42.670;23.354;2023-07-29T09:41:28;94721.69;;;27.98;61.51
20622;BME280;10470;42.670;23.354;2023-07-29T09:43:59;94717.06;;;28.34;61.67
20622;BME280;10470;42.670;23.354;2023-07-29T09:46:32;94718.06;;;28.21;60.65
20622;BME280;10470;42.670;23.354;2023-07-29T09:48:59;94714.22;;;28.01;60.57
20622;BME280;10470;42.670;23.354;2023-07-29T09:51:25;94712.44;;;28.28;60.83
20622;BME280;10470;42.670;23.354;2023-07-29T09:53:51;94704.56;;;28.27;59.68
20622;BME280;10470;42.670;23.354;2023-07-29T09:56:26;94711.31;;;28.64;58.93
20622;BME280;10470;42.670;23.354;2023-07-29T09:58:55;94712.00;;;28.72;57.23
20622;BME280;10470;42.670;23.354;2023-07-29T10:01:21;94704.22;;;28.63;57.00
20622;BME280;10470;42.670;23.354;2023-07-29T10:03:48;94711.09;;;28.70;56.04
20622;BME280;10470;42.670;23.354;2023-07-29T10:06:15;94707.81;;;28.56;55.96
20622;BME280;10470;42.670;23.354;2023-07-29T10:08:42;94701.19;;;28.69;54.63
20622;BME280;10470;42.670;23.354;2023-07-29T10:11:10;94703.81;;;28.92;54.76
20622;BME280;10470;42.670;23.354;2023-07-29T10:13:37;94707.53;;;28.94;53.94
20622;BME280;10470;42.670;23.354;2023-07-29T10:16:04;94701.59;;;28.65;52.74
20622;BME280;10470;42.670;23.354;2023-07-29T10:18:31;94697.03;;;28.78;53.05
20622;BME280;10470;42.670;23.354;2023-07-29T10:20:59;94696.06;;;28.83;52.65
20622;BME280;10470;42.670;23.354;2023-07-29T10:23:27;94693.13;;;28.32;50.32
20622;BME280;10470;42.670;23.354;2023-07-29T10:26:09;94693.69;;;28.46;50.09
20622;BME280;10470;42.670;23.354;2023-07-29T10:28:39;94682.56;;;28.56;50.70
20622;BME280;10470;42.670;23.354;2023-07-29T10:31:07;94678.41;;;28.90;51.78
20622;BME280;10470;42.670;23.354;2023-07-29T10:33:34;94674.53;;;29.03;51.27
20622;BME280;10470;42.670;23.354;2023-07-29T10:36:01;94675.53;;;29.23;51.59
20622;BME280;10470;42.670;23.354;2023-07-29T10:38:28;94666.38;;;29.22;49.82
20622;BME280;10470;42.670;23.354;2023-07-29T10:40:56;94673.66;;;29.43;51.07
20622;BME280;10470;42.670;23.354;2023-07-29T10:43:34;94672.25;;;29.51;49.08
20622;BME280;10470;42.670;23.354;2023-07-29T10:46:17;94675.47;;;29.30;47.67
20622;BME280;10470;42.670;23.354;2023-07-29T10:48:54;94672.78;;;29.15;47.52
20622;BME280;10470;42.670;23.354;2023-07-29T10:51:30;94664.50;;;29.59;47.59
20622;BME280;10470;42.670;23.354;2023-07-29T10:54:00;94656.31;;;29.54;48.14
20622;BME280;10470;42.670;23.354;2023-07-29T10:56:32;94663.59;;;29.39;47.50
20622;BME280;10470;42.670;23.354;2023-07-29T11:01:57;94653.53;;;30.16;46.54
20622;BME280;10470;42.670;23.354;2023-07-29T11:04:25;94652.38;;;30.19;46.31
20622;BME280;10470;42.670;23.354;2023-07-29T11:12:36;94643.63;;;31.06;44.46
20622;BME280;10470;42.670;23.354;2023-07-29T11:17:37;94643.56;;;31.43;43.80
20622;BME280;10470;42.670;23.354;2023-07-29T11:20:05;94634.97;;;30.84;44.78
20622;BME280;10470;42.670;23.354;2023-07-29T11:22:33;94632.50;;;31.08;46.01
20622;BME280;10470;42.670;23.354;2023-07-29T11:25:00;94638.88;;;31.18;44.66
20622;BME280;10470;42.670;23.354;2023-07-29T11:27:26;94636.16;;;31.67;43.50
20622;BME280;10470;42.670;23.354;2023-07-29T11:30:00;94637.50;;;32.05;42.53
20622;BME280;10470;42.670;23.354;2023-07-29T11:32:27;94637.41;;;32.43;42.37
20622;BME280;10470;42.670;23.354;2023-07-29T11:34:53;94630.97;;;31.63;41.82
20622;BME280;10470;42.670;23.354;2023-07-29T11:37:20;94639.13;;;32.08;42.18
20622;BME280;10470;42.670;23.354;2023-07-29T11:39:49;94637.19;;;32.61;42.61
20622;BME280;10470;42.670;23.354;2023-07-29T11:42:15;94635.09;;;33.55;40.12
20622;BME280;10470;42.670;23.354;2023-07-29T11:44:42;94637.91;;;33.77;39.61
20622;BME280;10470;42.670;23.354;2023-07-29T11:47:12;94633.78;;;33.46;39.16
20622;BME280;10470;42.670;23.354;2023-07-29T11:49:39;94625.06;;;33.64;38.71
20622;BME280;10470;42.670;23.354;2023-07-29T11:52:07;94630.00;;;34.30;38.74
20622;BME280;10470;42.670;23.354;2023-07-29T11:54:38;94621.94;;;33.38;38.24
20622;BME280;10470;42.670;23.354;2023-07-29T11:57:09;94624.34;;;33.97;38.30
20622;BME280;10470;42.670;23.354;2023-07-29T11:59:36;94634.34;;;35.01;37.03
20622;BME280;10470;42.670;23.354;2023-07-29T12:02:10;94624.53;;;34.79;36.85
20622;BME280;10470;42.670;23.354;2023-07-29T12:04:38;94614.13;;;35.80;36.38
20622;BME280;10470;42.670;23.354;2023-07-29T12:07:05;94610.66;;;35.93;35.81
20622;BME280;10470;42.670;23.354;2023-07-29T12:09:33;94616.91;;;35.66;35.80
20622;BME280;10470;42.670;23.354;2023-07-29T12:12:00;94609.78;;;35.91;35.02
20622;BME280;10470;42.670;23.354;2023-07-29T12:14:28;94600.47;;;35.39;36.13
20622;BME280;10470;42.670;23.354;2023-07-29T12:16:54;94609.06;;;36.55;35.45
20622;BME280;10470;42.670;23.354;2023-07-29T12:19:20;94602.28;;;37.29;34.74
20622;BME280;10470;42.670;23.354;2023-07-29T12:21:48;94607.03;;;36.97;33.92
20622;BME280;10470;42.670;23.354;2023-07-29T12:24:15;94606.59;;;38.17;33.75
20622;BME280;10470;42.670;23.354;2023-07-29T12:26:41;94603.81;;;37.46;33.67
20622;BME280;10470;42.670;23.354;2023-07-29T12:29:16;94599.19;;;36.56;33.62
20622;BME280;10470;42.670;23.354;2023-07-29T12:31:43;94601.25;;;37.80;33.04
20622;BME280;10470;42.670;23.354;2023-07-29T12:34:09;94599.13;;;37.51;33.44
20622;BME280;10470;42.670;23.354;2023-07-29T12:36:49;94604.41;;;38.16;33.38
20622;BME280;10470;42.670;23.354;2023-07-29T12:39:26;94598.22;;;38.06;32.86
20622;BME280;10470;42.670;23.354;2023-07-29T12:41:55;94596.81;;;36.92;33.08
20622;BME280;10470;42.670;23.354;2023-07-29T12:44:22;94598.22;;;35.37;34.18
20622;BME280;10470;42.670;23.354;2023-07-29T12:46:49;94599.22;;;36.30;33.11
20622;BME280;10470;42.670;23.354;2023-07-29T12:49:15;94587.56;;;35.12;34.75
20622;BME280;10470;42.670;23.354;2023-07-29T12:51:41;94587.69;;;34.91;35.11
20622;BME280;10470;42.670;23.354;2023-07-29T12:54:08;94595.81;;;34.49;34.19
20622;BME280;10470;42.670;23.354;2023-07-29T12:56:34;94588.03;;;35.32;33.57
20622;BME280;10470;42.670;23.354;2023-07-29T12:59:02;94587.47;;;35.85;32.65